sensor_id;sensor_type;location;lat;lon;timestamp;pressure;altitude;pressure_sealevel;temperature;humidity
46045;BME280;31781;54.094;13.428;2023-05-12T00:01:34;102072.47;;;14.75;42.84
46045;BME280;31781;54.094;13.428;2023-05-12T00:03:36;102075.44;;;14.74;43.05
46045;BME280;31781;54.094;13.428;2023-05-12T00:05:40;102078.56;;;14.71;43.45
46045;BME280;31781;54.094;13.428;2023-05-12T00:07:43;102077.72;;;14.70;43.28
46045;BME280;31781;54.094;13.428;2023-05-12T00:09:45;102078.09;;;14.67;43.36
46045;BME280;31781;54.094;13.428;2023-05-12T00:11:47;102080.22;;;14.65;43.48
46045;BME280;31781;54.094;13.428;2023-05-12T00:13:48;102077.03;;;14.61;43.44
46045;BME280;31781;54.094;13.428;2023-05-12T00:15:50;102083.78;;;14.59;43.33
46045;BME280;31781;54.094;13.428;2023-05-12T00:17:53;102078.69;;;14.56;43.57
46045;BME280;31781;54.094;13.428;2023-05-12T00:19:55;102079.94;;;14.53;43.67
46045;BME280;31781;54.094;13.428;2023-05-12T00:21:56;102080.34;;;14.50;43.92
46045;BME280;31781;54.094;13.428;2023-05-12T00:23:59;102078.88;;;14.48;43.91
46045;BME280;31781;54.094;13.428;2023-05-12T00:26:01;102079.06;;;14.46;44.50
46045;BME280;31781;54.094;13.428;2023-05-12T00:28:03;102079.25;;;14.45;43.89
46045;BME280;31781;54.094;13.428;2023-05-12T00:30:05;102076.75;;;14.43;44.07
46045;BME280;31781;54.094;13.428;2023-05-12T00:32:08;102083.47;;;14.41;43.86
46045;BME280;31781;54.094;13.428;2023-05-12T00:34:10;102084.69;;;14.38;43.88
46045;BME280;31781;54.094;13.428;2023-05-12T00:36:11;102084.94;;;14.37;43.70
46045;BME280;31781;54.094;13.428;2023-05-12T00:38:13;102078.97;;;14.33;43.49
46045;BME280;31781;54.094;13.428;2023-05-12T00:40:19;102077.28;;;14.32;43.13
46045;BME280;31781;54.094;13.428;2023-05-12T00:42:21;102079.34;;;14.30;43.02
46045;BME280;31781;54.094;13.428;2023-05-12T00:44:23;102082.31;;;14.29;42.55
46045;BME280;31781;54.094;13.428;2023-05-12T00:46:26;102077.88;;;14.28;42.72
46045;BME280;31781;54.094;13.428;2023-05-12T00:48:29;102087.97;;;14.27;42.76
46045;BME280;31781;54.094;13.428;2023-05-12T00:50:31;102090.06;;;14.25;42.88
46045;BME280;31781;54.094;13.428;2023-05-12T00:52:33;102083.13;;;14.23;42.57
46045;BME280;31781;54.094;13.428;2023-05-12T00:54:36;102084.16;;;14.22;42.73
46045;BME280;31781;54.094;13.428;2023-05-12T00:56:40;102084.34;;;14.20;42.60
46045;BME280;31781;54.094;13.428;2023-05-12T00:58:43;102093.81;;;14.18;43.18
46045;BME280;31781;54.094;13.428;2023-05-12T01:00:45;102089.59;;;14.15;43.17
46045;BME280;31781;54.094;13.428;2023-05-12T01:02:47;102089.16;;;14.11;43.40
46045;BME280;31781;54.094;13.428;2023-05-12T01:04:49;102089.34;;;14.10;43.69
46045;BME280;31781;54.094;13.428;2023-05-12T01:06:54;102090.59;;;14.07;43.16
46045;BME280;31781;54.094;13.428;2023-05-12T01:08:58;102092.66;;;14.05;43.71
46045;BME280;31781;54.094;13.428;2023-05-12T01:11:00;102088.44;;;14.03;43.18
46045;BME280;31781;54.094;13.428;2023-05-12T01:13:04;102086.31;;;13.98;43.37
46045;BME280;31781;54.094;13.428;2023-05-12T01:15:07;102095.75;;;13.96;43.23
46045;BME280;31781;54.094;13.428;2023-05-12T01:17:11;102085.22;;;13.93;43.50
46045;BME280;31781;54.094;13.428;2023-05-12T01:19:37;102090.03;;;13.91;44.16
46045;BME280;31781;54.094;13.428;2023-05-12T01:21:39;102089.56;;;13.87;45.84
46045;BME280;31781;54.094;13.428;2023-05-12T01:23:43;102094.41;;;13.85;43.67
46045;BME280;31781;54.094;13.428;2023-05-12T01:25:51;102091.22;;;13.82;44.46
46045;BME280;31781;54.094;13.428;2023-05-12T01:27:54;102087.84;;;13.80;44.13
46045;BME280;31781;54.094;13.428;2023-05-12T01:29:57;102091.81;;;13.77;43.36
46045;BME280;31781;54.094;13.428;2023-05-12T01:32:00;102098.50;;;13.75;44.52
46045;BME280;31781;54.094;13.428;2023-05-12T01:34:02;102089.66;;;13.73;46.15
46045;BME280;31781;54.094;13.428;2023-05-12T01:36:06;102092.13;;;13.68;45.60
46045;BME280;31781;54.094;13.428;2023-05-12T01:38:09;102099.03;;;13.63;46.13
46045;BME280;31781;54.094;13.428;2023-05-12T01:40:11;102092.28;;;13.59;46.88
46045;BME280;31781;54.094;13.428;2023-05-12T01:42:12;102088.25;;;13.55;45.38
46045;BME280;31781;54.094;13.428;2023-05-12T01:44:16;102086.94;;;13.51;45.35
46045;BME280;31781;54.094;13.428;2023-05-12T01:46:17;102087.34;;;13.48;45.20
46045;BME280;31781;54.094;13.428;2023-05-12T01:48:19;102085.84;;;13.46;44.86
46045;BME280;31781;54.094;13.428;2023-05-12T01:50:21;102094.44;;;13.43;45.59
46045;BME280;31781;54.094;13.428;2023-05-12T01:52:23;102086.63;;;13.40;45.03
46045;BME280;31781;54.094;13.428;2023-05-12T01:54:24;102094.38;;;13.36;45.05
46045;BME280;31781;54.094;13.428;2023-05-12T01:56:26;102092.66;;;13.35;44.93
46045;BME280;31781;54.094;13.428;2023-05-12T01:58:27;102091.19;;;13.33;45.15
46045;BME280;31781;54.094;13.428;2023-05-12T02:00:30;102091.56;;;13.30;45.03
46045;BME280;31781;54.094;13.428;2023-05-12T02:02:32;102093.84;;;13.26;46.11
46045;BME280;31781;54.094;13.428;2023-05-12T02:04:34;102101.59;;;13.23;45.92
46045;BME280;31781;54.094;13.428;2023-05-12T02:06:36;102102.63;;;13.22;46.45
46045;BME280;31781;54.094;13.428;2023-05-12T02:08:37;102099.59;;;13.16;46.15
46045;BME280;31781;54.094;13.428;2023-05-12T02:10:39;102103.59;;;13.14;46.61
46045;BME280;31781;54.094;13.428;2023-05-12T02:12:41;102108.38;;;13.12;46.49
46045;BME280;31781;54.094;13.428;2023-05-12T02:14:43;102112.53;;;13.08;46.90
46045;BME280;31781;54.094;13.428;2023-05-12T02:16:46;102111.22;;;13.04;46.96
46045;BME280;31781;54.094;13.428;2023-05-12T02:18:48;102107.19;;;13.00;47.61
46045;BME280;31781;54.094;13.428;2023-05-12T02:20:49;102116.56;;;12.97;47.40
46045;BME280;31781;54.094;13.428;2023-05-12T02:22:51;102115.31;;;12.93;48.65
46045;BME280;31781;54.094;13.428;2023-05-12T02:24:53;102119.44;;;12.89;48.83
46045;BME280;31781;54.094;13.428;2023-05-12T02:26:54;102119.81;;;12.86;49.03
46045;BME280;31781;54.094;13.428;2023-05-12T02:28:56;102115.56;;;12.84;49.34
46045;BME280;31781;54.094;13.428;2023-05-12T02:30:58;102117.00;;;12.80;48.96
46045;BME280;31781;54.094;13.428;2023-05-12T02:33:02;102116.53;;;12.76;49.15
46045;BME280;31781;54.094;13.428;2023-05-12T02:35:06;102119.66;;;12.73;49.78
46045;BME280;31781;54.094;13.428;2023-05-12T02:37:08;102120.22;;;12.68;49.84
46045;BME280;31781;54.094;13.428;2023-05-12T02:39:10;102119.56;;;12.66;49.19
46045;BME280;31781;54.094;13.428;2023-05-12T02:41:11;102119.75;;;12.65;50.63
46045;BME280;31781;54.094;13.428;2023-05-12T02:43:13;102121.81;;;12.63;50.46
46045;BME280;31781;54.094;13.428;2023-05-12T02:45:16;102128.97;;;12.64;50.38
46045;BME280;31781;54.094;13.428;2023-05-12T02:47:17;102122.00;;;12.61;50.42
46045;BME280;31781;54.094;13.428;2023-05-12T02:49:20;102129.53;;;12.59;49.52
46045;BME280;31781;54.094;13.428;2023-05-12T02:51:22;102136.22;;;12.57;50.05
46045;BME280;31781;54.094;13.428;2023-05-12T02:53:24;102133.69;;;12.55;49.70
46045;BME280;31781;54.094;13.428;2023-05-12T02:55:26;102133.22;;;12.52;49.78
46045;BME280;31781;54.094;13.428;2023-05-12T02:57:27;102127.28;;;12.48;49.59
46045;BME280;31781;54.094;13.428;2023-05-12T02:59:29;102123.03;;;12.46;49.83
46045;BME280;31781;54.094;13.428;2023-05-12T03:01:30;102128.69;;;12.44;50.15
46045;BME280;31781;54.094;13.428;2023-05-12T03:03:32;102124.44;;;12.42;50.10
46045;BME280;31781;54.094;13.428;2023-05-12T03:05:36;102128.41;;;12.39;50.00
46045;BME280;31781;54.094;13.428;2023-05-12T03:07:38;102130.47;;;12.37;50.54
46045;BME280;31781;54.094;13.428;2023-05-12T03:09:40;102127.28;;;12.34;50.71
46045;BME280;31781;54.094;13.428;2023-05-12T03:11:41;102128.69;;;12.30;50.67
46045;BME280;31781;54.094;13.428;2023-05-12T03:13:43;102131.78;;;12.27;50.59
46045;BME280;31781;54.094;13.428;2023-05-12T03:15:44;102127.75;;;12.23;50.54
46045;BME280;31781;54.094;13.428;2023-05-12T03:17:46;102135.44;;;12.19;50.48
46045;BME280;31781;54.094;13.428;2023-05-12T03:19:49;102131.19;;;12.16;50.40
46045;BME280;31781;54.094;13.428;2023-05-12T03:21:52;102133.44;;;12.13;50.53
46045;BME280;31781;54.094;13.428;2023-05-12T03:23:54;102128.19;;;12.11;50.85
46045;BME280;31781;54.094;13.428;2023-05-12T03:25:55;102131.09;;;12.10;50.47
46045;BME280;31781;54.094;13.428;2023-05-12T03:27:57;102135.91;;;12.08;50.63
46045;BME280;31781;54.094;13.428;2023-05-12T03:29:59;102136.06;;;12.06;50.21
46045;BME280;31781;54.094;13.428;2023-05-12T03:32:01;102137.31;;;12.04;50.67
46045;BME280;31781;54.094;13.428;2023-05-12T03:34:03;102138.50;;;12.01;50.46
46045;BME280;31781;54.094;13.428;2023-05-12T03:36:05;102137.84;;;11.99;50.90
46045;BME280;31781;54.094;13.428;2023-05-12T03:38:08;102140.94;;;11.96;50.51
46045;BME280;31781;54.094;13.428;2023-05-12T03:40:10;102150.16;;;11.95;51.34
46045;BME280;31781;54.094;13.428;2023-05-12T03:42:12;102141.81;;;11.97;51.35
46045;BME280;31781;54.094;13.428;2023-05-12T03:44:14;102142.84;;;12.10;51.16
46045;BME280;31781;54.094;13.428;2023-05-12T03:46:16;102148.72;;;12.22;50.45
46045;BME280;31781;54.094;13.428;2023-05-12T03:48:18;102149.47;;;12.31;50.81
46045;BME280;31781;54.094;13.428;2023-05-12T03:50:20;102145.34;;;12.35;50.64
46045;BME280;31781;54.094;13.428;2023-05-12T03:52:22;102147.41;;;12.33;50.93
46045;BME280;31781;54.094;13.428;2023-05-12T03:54:25;102153.63;;;12.27;51.19
46045;BME280;31781;54.094;13.428;2023-05-12T03:56:27;102147.50;;;12.25;51.58
46045;BME280;31781;54.094;13.428;2023-05-12T03:58:28;102140.31;;;12.24;51.57
46045;BME280;31781;54.094;13.428;2023-05-12T04:00:30;102141.38;;;12.23;51.49
46045;BME280;31781;54.094;13.428;2023-05-12T04:02:32;102146.00;;;12.22;51.88
46045;BME280;31781;54.094;13.428;2023-05-12T04:04:34;102142.59;;;12.20;52.12
46045;BME280;31781;54.094;13.428;2023-05-12T04:06:36;102146.16;;;12.20;52.24
46045;BME280;31781;54.094;13.428;2023-05-12T04:08:38;102156.06;;;12.22;51.90
46045;BME280;31781;54.094;13.428;2023-05-12T04:10:43;102151.63;;;12.20;51.95
46045;BME280;31781;54.094;13.428;2023-05-12T04:12:45;102150.59;;;12.22;52.10
46045;BME280;31781;54.094;13.428;2023-05-12T04:14:47;102150.41;;;12.23;52.15
46045;BME280;31781;54.094;13.428;2023-05-12T04:16:49;102147.69;;;12.23;52.30
46045;BME280;31781;54.094;13.428;2023-05-12T04:18:51;102149.38;;;12.24;52.33
46045;BME280;31781;54.094;13.428;2023-05-12T04:20:54;102157.38;;;12.26;52.58
46045;BME280;31781;54.094;13.428;2023-05-12T04:22:55;102158.03;;;12.28;52.37
46045;BME280;31781;54.094;13.428;2023-05-12T04:24:57;102162.28;;;12.30;52.31
46045;BME280;31781;54.094;13.428;2023-05-12T04:27:00;102156.44;;;12.33;52.47
46045;BME280;31781;54.094;13.428;2023-05-12T04:29:02;102157.09;;;12.35;52.13
46045;BME280;31781;54.094;13.428;2023-05-12T04:31:04;102164.09;;;12.38;52.29
46045;BME280;31781;54.094;13.428;2023-05-12T04:33:06;102164.56;;;12.41;52.45
46045;BME280;31781;54.094;13.428;2023-05-12T04:35:08;102166.91;;;12.44;52.49
46045;BME280;31781;54.094;13.428;2023-05-12T04:37:10;102158.72;;;12.44;52.10
46045;BME280;31781;54.094;13.428;2023-05-12T04:39:11;102160.91;;;12.49;51.79
46045;BME280;31781;54.094;13.428;2023-05-12T04:41:13;102169.56;;;12.52;52.63
46045;BME280;31781;54.094;13.428;2023-05-12T04:43:16;102164.75;;;12.54;52.05
46045;BME280;31781;54.094;13.428;2023-05-12T04:45:21;102172.56;;;12.57;52.15
46045;BME280;31781;54.094;13.428;2023-05-12T04:47:23;102171.16;;;12.61;52.33
46045;BME280;31781;54.094;13.428;2023-05-12T04:49:25;102172.47;;;12.65;52.23
46045;BME280;31781;54.094;13.428;2023-05-12T04:51:27;102178.88;;;12.73;52.15
46045;BME280;31781;54.094;13.428;2023-05-12T04:53:28;102174.72;;;12.77;51.42
46045;BME280;31781;54.094;13.428;2023-05-12T04:55:30;102171.44;;;12.81;51.43
46045;BME280;31781;54.094;13.428;2023-05-12T04:57:31;102177.16;;;12.86;51.98
46045;BME280;31781;54.094;13.428;2023-05-12T04:59:34;102175.97;;;12.89;51.48
46045;BME280;31781;54.094;13.428;2023-05-12T05:01:36;102183.38;;;12.95;51.75
46045;BME280;31781;54.094;13.428;2023-05-12T05:03:38;102183.69;;;13.00;51.49
46045;BME280;31781;54.094;13.428;2023-05-12T05:05:40;102183.75;;;13.06;52.50
46045;BME280;31781;54.094;13.428;2023-05-12T05:07:41;102187.28;;;13.15;52.25
46045;BME280;31781;54.094;13.428;2023-05-12T05:09:43;102190.94;;;13.22;52.27
46045;BME280;31781;54.094;13.428;2023-05-12T05:11:45;102193.56;;;13.30;52.21
46045;BME280;31781;54.094;13.428;2023-05-12T05:13:47;102197.22;;;13.37;51.93
46045;BME280;31781;54.094;13.428;2023-05-12T05:15:53;102193.53;;;13.45;52.24
46045;BME280;31781;54.094;13.428;2023-05-12T05:17:55;102195.28;;;13.52;51.85
46045;BME280;31781;54.094;13.428;2023-05-12T05:19:57;102200.63;;;13.60;52.19
46045;BME280;31781;54.094;13.428;2023-05-12T05:22:00;102197.97;;;13.67;51.96
46045;BME280;31781;54.094;13.428;2023-05-12T05:24:01;102204.38;;;13.74;51.44
46045;BME280;31781;54.094;13.428;2023-05-12T05:26:03;102198.97;;;13.81;51.51
46045;BME280;31781;54.094;13.428;2023-05-12T05:28:05;102200.72;;;13.88;52.08
46045;BME280;31781;54.094;13.428;2023-05-12T05:30:07;102206.25;;;13.95;51.27
46045;BME280;31781;54.094;13.428;2023-05-12T05:32:11;102210.75;;;14.02;51.86
46045;BME280;31781;54.094;13.428;2023-05-12T05:34:12;102212.31;;;14.11;50.25
46045;BME280;31781;54.094;13.428;2023-05-12T05:36:14;102207.53;;;14.20;50.48
46045;BME280;31781;54.094;13.428;2023-05-12T05:38:16;102210.97;;;14.29;50.66
46045;BME280;31781;54.094;13.428;2023-05-12T05:40:18;102220.75;;;14.38;50.53
46045;BME280;31781;54.094;13.428;2023-05-12T05:42:20;102222.31;;;14.47;49.66
46045;BME280;31781;54.094;13.428;2023-05-12T05:44:22;102225.56;;;14.57;49.88
46045;BME280;31781;54.094;13.428;2023-05-12T05:46:24;102225.22;;;14.67;49.58
46045;BME280;31781;54.094;13.428;2023-05-12T05:48:27;102225.47;;;14.78;49.64
46045;BME280;31781;54.094;13.428;2023-05-12T05:50:29;102229.97;;;14.86;49.08
46045;BME280;31781;54.094;13.428;2023-05-12T05:52:31;102228.78;;;14.95;49.20
46045;BME280;31781;54.094;13.428;2023-05-12T05:54:32;102231.13;;;15.04;49.41
46045;BME280;31781;54.094;13.428;2023-05-12T05:56:35;102233.53;;;15.14;49.58
46045;BME280;31781;54.094;13.428;2023-05-12T05:58:37;102230.22;;;15.25;49.26
46045;BME280;31781;54.094;13.428;2023-05-12T06:00:40;102232.38;;;15.36;48.86
46045;BME280;31781;54.094;13.428;2023-05-12T06:02:42;102224.41;;;15.48;48.49
46045;BME280;31781;54.094;13.428;2023-05-12T06:04:45;102224.03;;;15.57;48.51
46045;BME280;31781;54.094;13.428;2023-05-12T06:06:47;102232.50;;;15.69;48.66
46045;BME280;31781;54.094;13.428;2023-05-12T06:08:49;102224.53;;;15.81;48.10
46045;BME280;31781;54.094;13.428;2023-05-12T06:10:50;102219.47;;;15.91;48.18
46045;BME280;31781;54.094;13.428;2023-05-12T06:12:52;102214.41;;;16.01;47.40
46045;BME280;31781;54.094;13.428;2023-05-12T06:14:53;102214.88;;;16.11;47.61
46045;BME280;31781;54.094;13.428;2023-05-12T06:16:55;102219.94;;;16.21;47.57
46045;BME280;31781;54.094;13.428;2023-05-12T06:18:57;102224.16;;;16.30;47.26
46045;BME280;31781;54.094;13.428;2023-05-12T06:21:00;102224.34;;;16.41;47.94
46045;BME280;31781;54.094;13.428;2023-05-12T06:23:01;102225.63;;;16.52;47.24
46045;BME280;31781;54.094;13.428;2023-05-12T06:25:04;102228.59;;;16.64;46.74
46045;BME280;31781;54.094;13.428;2023-05-12T06:27:05;102228.81;;;16.75;47.12
46045;BME280;31781;54.094;13.428;2023-05-12T06:29:08;102229.19;;;16.85;46.31
46045;BME280;31781;54.094;13.428;2023-05-12T06:31:10;102230.69;;;16.94;45.81
46045;BME280;31781;54.094;13.428;2023-05-12T06:33:12;102227.47;;;17.04;45.82
46045;BME280;31781;54.094;13.428;2023-05-12T06:35:14;102234.44;;;17.13;44.95
46045;BME280;31781;54.094;13.428;2023-05-12T06:37:17;102234.41;;;17.20;45.22
46045;BME280;31781;54.094;13.428;2023-05-12T06:39:18;102236.94;;;17.28;44.85
46045;BME280;31781;54.094;13.428;2023-05-12T06:41:20;102231.41;;;17.34;44.65
46045;BME280;31781;54.094;13.428;2023-05-12T06:43:22;102242.16;;;17.42;44.71
46045;BME280;31781;54.094;13.428;2023-05-12T06:45:24;102241.91;;;17.50;44.64
46045;BME280;31781;54.094;13.428;2023-05-12T06:47:26;102250.56;;;17.61;44.32
46045;BME280;31781;54.094;13.428;2023-05-12T06:49:28;102238.88;;;17.72;44.27
46045;BME280;31781;54.094;13.428;2023-05-12T06:51:29;102244.75;;;17.82;44.23
46045;BME280;31781;54.094;13.428;2023-05-12T06:53:32;102245.72;;;17.94;43.92
46045;BME280;31781;54.094;13.428;2023-05-12T06:55:35;102243.13;;;18.06;44.44
46045;BME280;31781;54.094;13.428;2023-05-12T06:57:37;102239.66;;;18.17;43.76
46045;BME280;31781;54.094;13.428;2023-05-12T06:59:38;102242.28;;;18.30;43.18
46045;BME280;31781;54.094;13.428;2023-05-12T07:01:40;102241.38;;;18.42;43.17
46045;BME280;31781;54.094;13.428;2023-05-12T07:03:42;102241.25;;;18.56;42.33
46045;BME280;31781;54.094;13.428;2023-05-12T07:05:51;102240.09;;;18.70;42.79
46045;BME280;31781;54.094;13.428;2023-05-12T07:07:53;102234.91;;;18.80;41.86
46045;BME280;31781;54.094;13.428;2023-05-12T07:09:56;102234.16;;;18.91;42.09
46045;BME280;31781;54.094;13.428;2023-05-12T07:11:58;102240.56;;;19.03;41.46
46045;BME280;31781;54.094;13.428;2023-05-12T07:13:59;102238.38;;;19.12;41.16
46045;BME280;31781;54.094;13.428;2023-05-12T07:16:01;102244.81;;;19.24;41.04
46045;BME280;31781;54.094;13.428;2023-05-12T07:18:03;102239.84;;;19.32;40.78
46045;BME280;31781;54.094;13.428;2023-05-12T07:20:06;102238.25;;;19.43;39.86
46045;BME280;31781;54.094;13.428;2023-05-12T07:22:08;102242.38;;;19.52;39.71
46045;BME280;31781;54.094;13.428;2023-05-12T07:24:10;102241.00;;;19.61;39.93
46045;BME280;31781;54.094;13.428;2023-05-12T07:26:13;102238.50;;;19.71;40.04
46045;BME280;31781;54.094;13.428;2023-05-12T07:28:14;102245.16;;;19.82;40.03
46045;BME280;31781;54.094;13.428;2023-05-12T07:30:16;102239.69;;;19.93;39.02
46045;BME280;31781;54.094;13.428;2023-05-12T07:32:18;102240.56;;;20.06;39.26
46045;BME280;31781;54.094;13.428;2023-05-12T07:34:19;102250.81;;;20.17;38.75
46045;BME280;31781;54.094;13.428;2023-05-12T07:36:22;102233.63;;;20.26;38.38
46045;BME280;31781;54.094;13.428;2023-05-12T07:38:23;102240.56;;;20.35;39.09
46045;BME280;31781;54.094;13.428;2023-05-12T07:40:25;102239.72;;;20.47;39.51
46045;BME280;31781;54.094;13.428;2023-05-12T07:42:28;102234.22;;;20.58;39.26
46045;BME280;31781;54.094;13.428;2023-05-12T07:44:30;102231.44;;;20.70;38.44
46045;BME280;31781;54.094;13.428;2023-05-12T07:46:32;102237.81;;;20.82;38.04
46045;BME280;31781;54.094;13.428;2023-05-12T07:48:34;102233.34;;;20.93;38.22
46045;BME280;31781;54.094;13.428;2023-05-12T07:50:36;102232.50;;;21.04;37.40
46045;BME280;31781;54.094;13.428;2023-05-12T07:52:45;102234.22;;;21.16;38.09
46045;BME280;31781;54.094;13.428;2023-05-12T07:54:47;102221.94;;;21.24;36.83
46045;BME280;31781;54.094;13.428;2023-05-12T07:56:51;102238.50;;;21.35;37.09
46045;BME280;31781;54.094;13.428;2023-05-12T07:58:54;102232.09;;;21.47;36.46
46045;BME280;31781;54.094;13.428;2023-05-12T08:00:56;102242.03;;;21.59;37.47
46045;BME280;31781;54.094;13.428;2023-05-12T08:02:58;102232.25;;;21.68;39.41
46045;BME280;31781;54.094;13.428;2023-05-12T08:05:00;102237.25;;;21.83;39.92
46045;BME280;31781;54.094;13.428;2023-05-12T08:07:02;102236.97;;;21.96;39.63
46045;BME280;31781;54.094;13.428;2023-05-12T08:09:03;102235.09;;;22.13;40.66
46045;BME280;31781;54.094;13.428;2023-05-12T08:11:05;102236.44;;;22.27;39.68
46045;BME280;31781;54.094;13.428;2023-05-12T08:13:07;102239.72;;;22.41;38.70
46045;BME280;31781;54.094;13.428;2023-05-12T08:15:10;102241.06;;;22.55;39.66
46045;BME280;31781;54.094;13.428;2023-05-12T08:17:12;102236.31;;;22.67;39.27
46045;BME280;31781;54.094;13.428;2023-05-12T08:19:14;102249.81;;;22.80;38.70
46045;BME280;31781;54.094;13.428;2023-05-12T08:21:16;102246.72;;;22.94;38.51
46045;BME280;31781;54.094;13.428;2023-05-12T08:23:18;102243.00;;;23.05;38.26
46045;BME280;31781;54.094;13.428;2023-05-12T08:25:20;102239.81;;;23.18;38.80
46045;BME280;31781;54.094;13.428;2023-05-12T08:27:22;102239.47;;;23.31;39.68
46045;BME280;31781;54.094;13.428;2023-05-12T08:29:23;102241.63;;;23.46;39.23
46045;BME280;31781;54.094;13.428;2023-05-12T08:31:27;102247.63;;;23.59;38.86
46045;BME280;31781;54.094;13.428;2023-05-12T08:33:29;102249.19;;;23.72;38.65
46045;BME280;31781;54.094;13.428;2023-05-12T08:35:31;102242.63;;;23.83;38.51
46045;BME280;31781;54.094;13.428;2023-05-12T08:37:33;102242.75;;;23.93;38.23
46045;BME280;31781;54.094;13.428;2023-05-12T08:39:35;102250.09;;;24.04;37.87
46045;BME280;31781;54.094;13.428;2023-05-12T08:41:41;102252.16;;;24.14;38.47
46045;BME280;31781;54.094;13.428;2023-05-12T08:43:45;102249.16;;;24.20;37.23
46045;BME280;31781;54.094;13.428;2023-05-12T08:45:50;102242.25;;;24.28;38.34
46045;BME280;31781;54.094;13.428;2023-05-12T08:47:55;102241.78;;;24.36;38.38
46045;BME280;31781;54.094;13.428;2023-05-12T08:49:59;102249.97;;;24.48;38.31
46045;BME280;31781;54.094;13.428;2023-05-12T08:52:02;102240.59;;;24.59;37.81
46045;BME280;31781;54.094;13.428;2023-05-12T08:54:06;102247.06;;;24.69;37.65
46045;BME280;31781;54.094;13.428;2023-05-12T08:56:10;102250.50;;;24.82;37.22
46045;BME280;31781;54.094;13.428;2023-05-12T08:58:14;102244.72;;;24.88;36.71
46045;BME280;31781;54.094;13.428;2023-05-12T09:00:17;102251.47;;;24.97;37.58
46045;BME280;31781;54.094;13.428;2023-05-12T09:02:21;102244.28;;;25.06;37.67
46045;BME280;31781;54.094;13.428;2023-05-12T09:04:26;102244.06;;;25.18;36.91
46045;BME280;31781;54.094;13.428;2023-05-12T09:06:28;102244.41;;;25.27;36.59
46045;BME280;31781;54.094;13.428;2023-05-12T09:08:30;102243.91;;;25.35;36.25
46045;BME280;31781;54.094;13.428;2023-05-12T09:10:31;102241.13;;;25.40;36.98
46045;BME280;31781;54.094;13.428;2023-05-12T09:12:36;102236.97;;;25.47;36.68
46045;BME280;31781;54.094;13.428;2023-05-12T09:14:39;102244.84;;;25.55;36.27
46045;BME280;31781;54.094;13.428;2023-05-12T09:16:44;102239.28;;;25.65;36.20
46045;BME280;31781;54.094;13.428;2023-05-12T09:18:50;102239.06;;;25.77;36.39
46045;BME280;31781;54.094;13.428;2023-05-12T09:20:54;102245.78;;;25.86;35.42
46045;BME280;31781;54.094;13.428;2023-05-12T09:22:55;102251.66;;;25.95;35.91
46045;BME280;31781;54.094;13.428;2023-05-12T09:24:57;102249.72;;;26.05;35.82
46045;BME280;31781;54.094;13.428;2023-05-12T09:26:59;102248.91;;;26.15;35.40
46045;BME280;31781;54.094;13.428;2023-05-12T09:29:05;102249.78;;;26.26;35.55
46045;BME280;31781;54.094;13.428;2023-05-12T09:31:14;102245.34;;;26.35;36.04
46045;BME280;31781;54.094;13.428;2023-05-12T09:33:17;102247.56;;;26.43;34.37
46045;BME280;31781;54.094;13.428;2023-05-12T09:35:19;102238.34;;;26.52;35.48
46045;BME280;31781;54.094;13.428;2023-05-12T09:37:29;102243.66;;;26.64;35.61
46045;BME280;31781;54.094;13.428;2023-05-12T09:39:32;102241.41;;;26.71;34.51
46045;BME280;31781;54.094;13.428;2023-05-12T09:41:35;102246.41;;;26.79;34.54
46045;BME280;31781;54.094;13.428;2023-05-12T09:43:43;102246.44;;;26.89;35.27
46045;BME280;31781;54.094;13.428;2023-05-12T09:45:45;102252.00;;;26.99;34.79
46045;BME280;31781;54.094;13.428;2023-05-12T09:47:47;102251.97;;;27.09;34.70
46045;BME280;31781;54.094;13.428;2023-05-12T09:49:50;102250.28;;;27.19;34.52
46045;BME280;31781;54.094;13.428;2023-05-12T09:51:54;102244.13;;;27.27;33.67
46045;BME280;31781;54.094;13.428;2023-05-12T09:53:58;102250.78;;;27.36;33.85
46045;BME280;31781;54.094;13.428;2023-05-12T09:56:00;102244.59;;;27.44;33.80
46045;BME280;31781;54.094;13.428;2023-05-12T09:58:05;102241.53;;;27.50;33.75
46045;BME280;31781;54.094;13.428;2023-05-12T10:00:10;102245.41;;;27.60;33.73
46045;BME280;31781;54.094;13.428;2023-05-12T10:02:33;102242.03;;;27.68;32.60
46045;BME280;31781;54.094;13.428;2023-05-12T10:04:42;102241.69;;;27.74;33.36
46045;BME280;31781;54.094;13.428;2023-05-12T10:06:44;102237.47;;;27.77;32.53
46045;BME280;31781;54.094;13.428;2023-05-12T10:08:50;102238.00;;;27.84;33.55
46045;BME280;31781;54.094;13.428;2023-05-12T10:10:55;102230.97;;;27.91;33.26
46045;BME280;31781;54.094;13.428;2023-05-12T10:12:59;102234.81;;;28.00;32.43
46045;BME280;31781;54.094;13.428;2023-05-12T10:15:01;102237.00;;;28.09;31.66
46045;BME280;31781;54.094;13.428;2023-05-12T10:17:04;102236.16;;;28.13;32.39
46045;BME280;31781;54.094;13.428;2023-05-12T10:19:07;102238.94;;;28.18;32.48
46045;BME280;31781;54.094;13.428;2023-05-12T10:21:11;102243.34;;;28.24;31.98
46045;BME280;31781;54.094;13.428;2023-05-12T10:23:13;102245.53;;;28.32;31.03
46045;BME280;31781;54.094;13.428;2023-05-12T10:25:19;102241.56;;;28.38;31.82
46045;BME280;31781;54.094;13.428;2023-05-12T10:27:23;102240.41;;;28.44;31.54
46045;BME280;31781;54.094;13.428;2023-05-12T10:29:25;102237.25;;;28.51;32.19
46045;BME280;31781;54.094;13.428;2023-05-12T10:31:28;102237.47;;;28.60;31.83
46045;BME280;31781;54.094;13.428;2023-05-12T10:33:31;102241.03;;;28.65;31.16